createdAt,value
2022-08-17T00:00:43.078Z,17.30
2022-08-17T00:05:53.517Z,17.30
2022-08-17T00:10:56.726Z,17.20
2022-08-17T00:16:02.557Z,17.10
2022-08-17T00:21:10.479Z,17.20
2022-08-17T00:26:14.329Z,17.10
2022-08-17T00:31:16.965Z,17.10
2022-08-17T00:36:20.044Z,17.10
2022-08-17T00:41:25.208Z,17.30
2022-08-17T00:46:34.917Z,17.50
2022-08-17T00:51:53.165Z,17.30
2022-08-17T00:57:01.080Z,17.10
2022-08-17T01:02:04.115Z,16.90
2022-08-17T01:07:07.672Z,16.90
2022-08-17T01:12:12.169Z,17.20
2022-08-17T01:17:14.660Z,17.00
2022-08-17T01:22:21.524Z,16.90
2022-08-17T01:27:24.566Z,16.90
2022-08-17T01:32:28.759Z,16.80
2022-08-17T01:37:39.079Z,16.80
2022-08-17T01:43:21.692Z,16.70
2022-08-17T01:48:24.403Z,16.60
2022-08-17T01:53:32.645Z,16.50
2022-08-17T01:58:36.689Z,16.50
2022-08-17T02:03:39.265Z,16.60
2022-08-17T02:09:01.704Z,16.60
2022-08-17T02:14:05.685Z,16.50
2022-08-17T02:19:11.307Z,16.50
2022-08-17T02:24:58.640Z,16.60
2022-08-17T02:29:41.661Z,16.50
2022-08-17T02:34:44.200Z,16.40
2022-08-17T02:39:46.905Z,16.30
2022-08-17T02:44:49.382Z,16.30
2022-08-17T02:49:54.402Z,16.30
2022-08-17T02:54:58.414Z,16.20
2022-08-17T03:00:00.925Z,16.20
2022-08-17T03:05:04.774Z,16.20
2022-08-17T03:10:08.293Z,16.30
2022-08-17T03:15:14.719Z,16.30
2022-08-17T03:20:17.566Z,16.20
2022-08-17T03:25:41.319Z,16.30
2022-08-17T03:30:45.893Z,16.50
2022-08-17T03:35:49.048Z,16.50
2022-08-17T03:40:58.759Z,16.30
2022-08-17T03:46:27.753Z,16.20
2022-08-17T03:51:53.653Z,16.20
2022-08-17T03:57:10.506Z,16.30
2022-08-17T04:02:21.558Z,16.60
2022-08-17T04:07:27.641Z,16.80
2022-08-17T04:12:47.898Z,17.00
2022-08-17T04:17:50.781Z,17.30
2022-08-17T04:23:00.391Z,17.70
2022-08-17T04:28:04.316Z,17.90
2022-08-17T04:33:14.139Z,18.30
2022-08-17T04:38:20.295Z,18.60
2022-08-17T04:43:25.176Z,19.10
2022-08-17T04:48:36.467Z,19.50
2022-08-17T04:53:42.906Z,20.00
2022-08-17T04:58:51.275Z,20.60
2022-08-17T05:03:56.544Z,21.00
2022-08-17T05:08:59.940Z,21.40
2022-08-17T05:14:03.084Z,22.00
2022-08-17T05:19:05.671Z,22.30
2022-08-17T05:24:36.075Z,22.90
2022-08-17T05:29:35.076Z,23.50
2022-08-17T05:34:38.236Z,23.70
2022-08-17T05:39:41.652Z,24.10
2022-08-17T05:44:44.152Z,24.70
2022-08-17T05:49:49.019Z,24.90
2022-08-17T05:55:17.007Z,24.80
2022-08-17T06:00:36.794Z,24.00
2022-08-17T06:06:03.298Z,23.70
2022-08-17T06:11:20.863Z,24.00
2022-08-17T06:16:33.522Z,24.20
2022-08-17T06:21:41.171Z,24.30
2022-08-17T06:26:45.394Z,24.70
2022-08-17T06:31:49.025Z,24.70
2022-08-17T06:37:03.770Z,24.80
2022-08-17T06:42:59.985Z,25.00
2022-08-17T06:48:15.436Z,25.00
2022-08-17T06:53:29.454Z,25.40
2022-08-17T06:58:33.375Z,25.50
2022-08-17T07:03:37.783Z,25.90
2022-08-17T07:08:47.977Z,25.80
2022-08-17T07:14:28.196Z,25.80
2022-08-17T07:19:33.116Z,26.00
2022-08-17T07:24:57.342Z,26.10
2022-08-17T07:30:06.799Z,26.20
2022-08-17T07:41:22.011Z,26.30
2022-08-17T07:47:08.754Z,26.40
2022-08-17T07:52:50.966Z,26.60
2022-08-17T07:57:59.322Z,26.60
2022-08-17T08:03:28.401Z,26.70
2022-08-17T08:08:37.069Z,26.80
2022-08-17T08:13:44.021Z,26.90
2022-08-17T08:18:54.299Z,26.70
2022-08-17T08:24:16.615Z,27.00
2022-08-17T08:29:43.398Z,26.80
2022-08-17T08:35:07.337Z,26.90
2022-08-17T08:40:48.639Z,27.20
2022-08-17T08:46:03.538Z,27.40
2022-08-17T08:51:35.409Z,27.40
2022-08-17T08:57:11.933Z,27.40
2022-08-17T09:02:41.800Z,27.40
2022-08-17T09:08:03.621Z,27.40
2022-08-17T09:13:14.916Z,27.40
2022-08-17T09:19:01.850Z,27.60
2022-08-17T09:24:20.651Z,27.70
2022-08-17T09:29:26.012Z,27.90
2022-08-17T09:34:47.076Z,27.90
2022-08-17T09:40:17.550Z,27.90
2022-08-17T09:45:42.659Z,27.90
2022-08-17T09:51:06.406Z,27.50
2022-08-17T09:56:27.841Z,27.60
2022-08-17T10:01:42.627Z,28.30
2022-08-17T10:06:58.759Z,28.20
2022-08-17T10:12:32.137Z,28.10
2022-08-17T10:17:36.375Z,28.30
2022-08-17T10:23:06.193Z,28.10
2022-08-17T10:28:19.938Z,28.40
2022-08-17T10:33:28.060Z,28.50
2022-08-17T10:38:46.127Z,28.90
2022-08-17T10:44:36.670Z,28.90
2022-08-17T10:49:21.201Z,29.00
2022-08-17T10:54:40.805Z,28.70
2022-08-17T10:59:43.435Z,29.30
2022-08-17T11:05:20.011Z,29.40
2022-08-17T11:10:52.172Z,29.70
2022-08-17T11:16:29.793Z,29.70
2022-08-17T11:21:52.721Z,29.30
2022-08-17T11:27:07.699Z,29.20
2022-08-17T11:32:33.694Z,29.30
2022-08-17T11:37:48.447Z,29.30
2022-08-17T11:43:07.629Z,29.70
2022-08-17T11:49:02.946Z,30.10
2022-08-17T11:59:37.009Z,29.70
2022-08-17T12:05:14.566Z,30.00
2022-08-17T12:10:21.691Z,30.20
2022-08-17T12:15:42.523Z,30.50
2022-08-17T12:20:56.531Z,30.00
2022-08-17T12:26:15.248Z,29.40
2022-08-17T12:31:25.862Z,29.30
2022-08-17T12:36:29.169Z,29.70
2022-08-17T12:41:38.877Z,29.80
2022-08-17T12:47:07.731Z,29.90
2022-08-17T12:52:32.970Z,30.20
2022-08-17T12:57:41.374Z,30.50
2022-08-17T13:03:00.207Z,30.90
2022-08-17T13:08:13.547Z,30.50
2022-08-17T13:13:25.025Z,30.00
2022-08-17T13:18:36.391Z,29.50
2022-08-17T13:23:38.967Z,29.00
2022-08-17T13:28:49.796Z,29.30
2022-08-17T13:33:52.374Z,29.70
2022-08-17T13:39:13.453Z,30.20
2022-08-17T13:44:37.304Z,30.20
2022-08-17T13:49:41.706Z,30.50
2022-08-17T13:54:52.393Z,30.80
2022-08-17T14:00:19.195Z,30.50
2022-08-17T14:05:21.708Z,30.00
2022-08-17T14:10:25.683Z,29.90
2022-08-17T14:15:53.976Z,29.90
2022-08-17T14:20:53.215Z,30.10
2022-08-17T14:25:55.817Z,30.40
2022-08-17T14:30:58.290Z,30.50
2022-08-17T14:36:00.961Z,30.40
2022-08-17T14:41:04.759Z,30.50
2022-08-17T14:46:07.405Z,30.40
2022-08-17T14:51:09.989Z,30.40
2022-08-17T14:56:13.465Z,30.30
2022-08-17T15:01:16.121Z,30.50
2022-08-17T15:06:18.859Z,30.30
2022-08-17T15:11:21.560Z,30.40
2022-08-17T15:16:24.346Z,30.60
2022-08-17T15:21:26.947Z,31.00
2022-08-17T15:26:29.450Z,31.00
2022-08-17T15:31:33.138Z,31.30
2022-08-17T15:36:35.931Z,31.20
2022-08-17T15:41:38.361Z,30.90
2022-08-17T15:46:40.936Z,29.90
2022-08-17T15:51:47.844Z,29.30
2022-08-17T15:56:50.755Z,29.30
2022-08-17T16:03:15.421Z,29.10
2022-08-17T16:07:18.799Z,29.00
2022-08-17T16:12:22.676Z,28.50
2022-08-17T16:17:40.192Z,28.10
2022-08-17T16:22:48.180Z,28.10
2022-08-17T16:27:54.107Z,27.90
2022-08-17T16:32:59.189Z,27.60
2022-08-17T16:38:02.797Z,27.90
2022-08-17T16:43:10.602Z,27.70
2022-08-17T16:48:15.406Z,27.60
2022-08-17T16:53:18.911Z,27.40
2022-08-17T16:58:21.635Z,27.20
2022-08-17T17:03:26.006Z,27.00
2022-08-17T17:08:40.717Z,27.20
2022-08-17T17:13:54.270Z,26.90
2022-08-17T17:19:27.893Z,26.70
2022-08-17T17:24:55.860Z,26.40
2022-08-17T17:30:11.089Z,26.10
2022-08-17T17:35:21.909Z,25.80
2022-08-17T17:40:31.999Z,25.60
2022-08-17T17:45:44.168Z,25.30
2022-08-17T17:51:15.221Z,24.80
2022-08-17T17:56:58.710Z,24.10
2022-08-17T18:02:45.572Z,23.70
2022-08-17T18:08:11.085Z,23.60
2022-08-17T18:13:45.456Z,23.50
2022-08-17T18:18:52.509Z,23.40
2022-08-17T18:24:02.118Z,23.10
2022-08-17T18:29:16.013Z,22.90
2022-08-17T18:39:48.799Z,22.60
2022-08-17T18:44:54.905Z,22.50
2022-08-17T18:50:18.092Z,22.40
2022-08-17T18:55:30.258Z,22.20
2022-08-17T19:00:41.364Z,21.90
2022-08-17T19:05:48.177Z,21.90
2022-08-17T19:10:59.123Z,22.00
2022-08-17T19:16:14.586Z,22.10
2022-08-17T19:21:27.045Z,22.10
2022-08-17T19:26:53.715Z,22.20
2022-08-17T19:31:59.637Z,22.30
2022-08-17T19:37:06.974Z,22.30
2022-08-17T19:42:24.494Z,22.50
2022-08-17T19:47:55.065Z,22.50
2022-08-17T19:53:09.561Z,22.40
2022-08-17T19:58:52.704Z,22.30
2022-08-17T20:04:07.774Z,22.30
2022-08-17T20:09:25.300Z,22.50
2022-08-17T20:14:55.308Z,22.50
2022-08-17T20:20:04.098Z,22.50
2022-08-17T20:25:15.448Z,22.50
2022-08-17T20:30:26.858Z,22.20
2022-08-17T20:35:30.423Z,22.00
2022-08-17T20:41:01.101Z,21.70
2022-08-17T20:46:37.937Z,21.70
2022-08-17T20:52:00.854Z,21.80
2022-08-17T20:57:09.185Z,22.00
2022-08-17T21:02:22.890Z,22.10
2022-08-17T21:07:33.129Z,22.00
2022-08-17T21:13:21.860Z,21.80
2022-08-17T21:18:30.374Z,21.60
2022-08-17T21:23:51.548Z,21.50
2022-08-17T21:29:31.447Z,21.50
2022-08-17T21:34:36.713Z,21.40
2022-08-17T21:39:41.734Z,21.40
2022-08-17T21:44:50.658Z,21.00
2022-08-17T21:49:54.633Z,20.90
2022-08-17T21:55:02.481Z,21.00
2022-08-17T22:00:16.865Z,20.90
2022-08-17T22:05:29.057Z,20.60
2022-08-17T22:10:41.461Z,20.10
2022-08-17T22:15:46.898Z,19.90
2022-08-17T22:20:56.297Z,19.70
2022-08-17T22:26:12.727Z,19.70
2022-08-17T22:31:46.405Z,19.60
2022-08-17T22:36:49.032Z,19.50
2022-08-17T22:41:55.641Z,19.50
2022-08-17T22:47:17.068Z,19.50
2022-08-17T22:52:35.686Z,19.50
2022-08-17T22:58:04.943Z,19.60
2022-08-17T23:03:28.132Z,19.60
2022-08-17T23:08:33.653Z,19.30
2022-08-17T23:13:37.960Z,19.00
2022-08-17T23:18:40.574Z,18.90
2022-08-17T23:23:43.122Z,18.80
2022-08-17T23:28:45.775Z,18.80
2022-08-17T23:33:49.782Z,18.70
2022-08-17T23:38:53.631Z,18.70
2022-08-17T23:43:56.340Z,18.80
2022-08-17T23:48:59.599Z,18.70
2022-08-17T23:54:08.564Z,18.60
2022-08-17T23:59:12.264Z,18.60
